Historique des mesures à Cassis (13260), France
Quotidien Résumé Septembre 18, 2017 Unités:  Métrique    US   Métrique/US
« Précédent (Jour)
Suivant (Jour) »
Quotidien Hebdomadaire Mensuel Annuel Période au choix
  Maximum: Minimum: Moyenne:
Température: TemperatureC °C 14.3 °C 15.1 °C
Point de rosée: DewpointC °C 9.3 °C 10.3 °C
Humidité: Humidity % 66 % 69 %
Vitesse du vent: 0 km/h 0 km/h 6.6 km/h
Rafales: 0 km/h - -
Vent:- - SSW
Pression: PressurehPa hPa 1011.7 hPa -
Précipitations: 1.0 mm    
Historical Graphs
 
 
Mesures pour : Septembre 18, 2017
Heure Temperature Point de rosée Pression Vent Vitesse du vent Rafales Humidité Pluie (par heure) Conditions
TemperatureC °C DewpointC °C PressurehPa hPa Calm     Humidity % HourlyPrecipMM mm SoftwareType W/m2
00:11 16.1 °C 10.7 °C 1014.8 hPa NW 8 km/h 9.3 km/h 70 % 0.0 mm open2300-1.11 W/m2
01:11 16.3 °C 10.9 °C 1014.1 hPa Calm     70 % 0.0 mm open2300-1.11 W/m2
02:11 16.2 °C 11.0 °C 1013.8 hPa Calm   2.9 km/h 71 % 0.0 mm open2300-1.11 W/m2
03:11 16.2 °C 10.1 °C 1013.1 hPa Calm   7.6 km/h 67 % 0.0 mm open2300-1.11 W/m2
04:11 15.4 °C 10.0 °C 1012.8 hPa NW 12.2 km/h 24.8 km/h 70 % 0.0 mm open2300-1.11 W/m2
05:11 14.9 °C 9.7 °C 1012.4 hPa Calm     71 % 0.0 mm open2300-1.11 W/m2
06:11 14.5 °C 9.3 °C 1012.8 hPa Calm   2.9 km/h 71 % 0.0 mm open2300-1.11 W/m2
07:11 14.3 °C 9.3 °C 1012.8 hPa Calm     72 % 0.0 mm open2300-1.11 W/m2
08:11 14.8 °C 9.6 °C 1013.1 hPa NW 5.6 km/h 5.6 km/h 71 % 0.0 mm open2300-1.11 W/m2
09:11 15.4 °C 10.0 °C 1013.1 hPa Calm   5.1 km/h 70 % 0.0 mm open2300-1.11 W/m2
10:11 16.3 °C 9.9 °C 1013.8 hPa North 6.4 km/h 14.5 km/h 66 % 0.0 mm open2300-1.11 W/m2
11:11 16.1 °C 10.2 °C 1012.8 hPa WNW 13.2 km/h 13.2 km/h 68 % 0.0 mm open2300-1.11 W/m2
12:11 15.6 °C 10.6 °C 1013.4 hPa NNE 2.3 km/h 2.3 km/h 72 % 0.0 mm open2300-1.11 W/m2
13:11 15.9 °C 11.7 °C 1013.1 hPa Calm     76 % 0.0 mm open2300-1.11 W/m2
14:11 16.1 °C 12.1 °C 1013.1 hPa Calm   4.7 km/h 77 % 0.5 mm open2300-1.11 W/m2
15:11 16.0 °C 12.2 °C 1012.8 hPa WNW 9.3 km/h 9.3 km/h 78 % 0.0 mm open2300-1.11 W/m2
16:11 15.4 °C 11.4 °C 1011.7 hPa WNW 13.2 km/h 19.2 km/h 77 % 0.5 mm open2300-1.11 W/m2
17:11 16.1 °C 11.7 °C 1011.7 hPa WNW 12.7 km/h 34.8 km/h 75 % 0.0 mm open2300-1.11 W/m2
18:11 15.9 °C 11.3 °C 1011.7 hPa NNW 4.7 km/h 9.8 km/h 74 % 0.0 mm open2300-1.11 W/m2
19:11 16.3 °C 11.7 °C 1011.7 hPa NW 12.7 km/h 23 km/h 74 % 0.0 mm open2300-1.11 W/m2
20:11 15.1 °C 11.7 °C 1011.7 hPa NW 22.5 km/h 22.5 km/h 80 % 0.0 mm open2300-1.11 W/m2
21:11 15.8 °C 11.2 °C 1011.7 hPa North 13.2 km/h 13.2 km/h 74 % 0.0 mm open2300-1.11 W/m2
22:11 16.1 °C 10.4 °C 1012.1 hPa North 11.6 km/h 12.2 km/h 69 % 0.0 mm open2300-1.11 W/m2
23:11 15.8 °C 9.7 °C 1012.4 hPa North 19.2 km/h 21.6 km/h 67 % 0.0 mm open2300-1.11 W/m2
Observations météo à CASSIS
WU-History script by Weather Underground - 1 mb